sensor_id;sensor_type;location;lat;lon;timestamp;temperature;humidity
35531;DHT22;21637;53.352;-6.356;2023-01-19T00:01:14;1.10;99.90
35531;DHT22;21637;53.352;-6.356;2023-01-19T00:03:39;1.10;99.90
35531;DHT22;21637;53.352;-6.356;2023-01-19T00:06:06;1.00;99.90
35531;DHT22;21637;53.352;-6.356;2023-01-19T00:08:31;1.00;99.90
35531;DHT22;21637;53.352;-6.356;2023-01-19T00:10:57;1.00;99.90
35531;DHT22;21637;53.352;-6.356;2023-01-19T00:13:22;1.00;99.90
35531;DHT22;21637;53.352;-6.356;2023-01-19T00:15:48;1.00;99.90
35531;DHT22;21637;53.352;-6.356;2023-01-19T00:18:14;1.10;99.90
35531;DHT22;21637;53.352;-6.356;2023-01-19T00:20:39;1.10;99.90
35531;DHT22;21637;53.352;-6.356;2023-01-19T00:23:05;1.10;99.90
35531;DHT22;21637;53.352;-6.356;2023-01-19T00:25:32;1.10;99.90
35531;DHT22;21637;53.352;-6.356;2023-01-19T00:27:58;1.10;99.90
35531;DHT22;21637;53.352;-6.356;2023-01-19T00:30:23;1.10;99.90
35531;DHT22;21637;53.352;-6.356;2023-01-19T00:32:49;1.10;99.90
35531;DHT22;21637;53.352;-6.356;2023-01-19T00:35:14;1.10;99.90
35531;DHT22;21637;53.352;-6.356;2023-01-19T00:37:40;1.10;99.90
35531;DHT22;21637;53.352;-6.356;2023-01-19T00:40:11;1.10;99.90
35531;DHT22;21637;53.352;-6.356;2023-01-19T00:42:36;1.10;99.90
35531;DHT22;21637;53.352;-6.356;2023-01-19T00:45:08;1.10;99.90
35531;DHT22;21637;53.352;-6.356;2023-01-19T00:47:34;1.00;99.90
35531;DHT22;21637;53.352;-6.356;2023-01-19T00:50:00;1.00;99.90
35531;DHT22;21637;53.352;-6.356;2023-01-19T00:52:25;1.00;99.90
35531;DHT22;21637;53.352;-6.356;2023-01-19T00:54:51;1.00;99.90
35531;DHT22;21637;53.352;-6.356;2023-01-19T00:57:16;0.90;99.90
35531;DHT22;21637;53.352;-6.356;2023-01-19T00:59:43;0.90;99.90
35531;DHT22;21637;53.352;-6.356;2023-01-19T01:02:09;0.90;99.90
35531;DHT22;21637;53.352;-6.356;2023-01-19T01:04:36;0.90;99.90
35531;DHT22;21637;53.352;-6.356;2023-01-19T01:07:01;0.90;99.90
35531;DHT22;21637;53.352;-6.356;2023-01-19T01:09:27;0.90;99.90
35531;DHT22;21637;53.352;-6.356;2023-01-19T01:11:53;0.90;99.90
35531;DHT22;21637;53.352;-6.356;2023-01-19T01:14:18;0.80;99.90
35531;DHT22;21637;53.352;-6.356;2023-01-19T01:16:44;0.80;99.90
35531;DHT22;21637;53.352;-6.356;2023-01-19T01:19:10;0.80;99.90
35531;DHT22;21637;53.352;-6.356;2023-01-19T01:21:35;0.80;99.90
35531;DHT22;21637;53.352;-6.356;2023-01-19T01:24:02;0.80;99.90
35531;DHT22;21637;53.352;-6.356;2023-01-19T01:26:27;0.80;99.90
35531;DHT22;21637;53.352;-6.356;2023-01-19T01:28:53;0.80;99.90
35531;DHT22;21637;53.352;-6.356;2023-01-19T01:31:18;0.80;99.90
35531;DHT22;21637;53.352;-6.356;2023-01-19T01:33:44;0.90;99.90
35531;DHT22;21637;53.352;-6.356;2023-01-19T01:36:10;0.90;99.90
35531;DHT22;21637;53.352;-6.356;2023-01-19T01:38:36;0.90;99.90
35531;DHT22;21637;53.352;-6.356;2023-01-19T01:41:02;0.90;99.90
35531;DHT22;21637;53.352;-6.356;2023-01-19T01:43:40;0.90;99.90
35531;DHT22;21637;53.352;-6.356;2023-01-19T01:46:06;0.90;99.90
35531;DHT22;21637;53.352;-6.356;2023-01-19T01:48:32;0.90;99.90
35531;DHT22;21637;53.352;-6.356;2023-01-19T01:50:59;0.90;99.90
35531;DHT22;21637;53.352;-6.356;2023-01-19T01:53:46;0.90;99.90
35531;DHT22;21637;53.352;-6.356;2023-01-19T01:56:13;1.00;99.90
35531;DHT22;21637;53.352;-6.356;2023-01-19T01:58:39;1.00;99.90
35531;DHT22;21637;53.352;-6.356;2023-01-19T02:01:05;1.00;99.90
35531;DHT22;21637;53.352;-6.356;2023-01-19T02:03:50;1.00;99.90
35531;DHT22;21637;53.352;-6.356;2023-01-19T02:06:16;1.00;99.90
35531;DHT22;21637;53.352;-6.356;2023-01-19T02:11:28;1.00;99.90
35531;DHT22;21637;53.352;-6.356;2023-01-19T02:14:13;1.10;99.90
35531;DHT22;21637;53.352;-6.356;2023-01-19T02:16:39;1.10;99.90
35531;DHT22;21637;53.352;-6.356;2023-01-19T02:19:05;1.10;99.90
35531;DHT22;21637;53.352;-6.356;2023-01-19T02:23:59;1.10;99.90
35531;DHT22;21637;53.352;-6.356;2023-01-19T02:26:28;1.10;99.90
35531;DHT22;21637;53.352;-6.356;2023-01-19T02:28:56;1.10;99.90
35531;DHT22;21637;53.352;-6.356;2023-01-19T02:31:23;1.10;99.90
35531;DHT22;21637;53.352;-6.356;2023-01-19T02:33:49;1.10;99.90
35531;DHT22;21637;53.352;-6.356;2023-01-19T02:36:15;1.10;99.90
35531;DHT22;21637;53.352;-6.356;2023-01-19T02:38:43;1.10;99.90
35531;DHT22;21637;53.352;-6.356;2023-01-19T02:41:10;1.10;99.90
35531;DHT22;21637;53.352;-6.356;2023-01-19T02:43:36;1.10;99.90
35531;DHT22;21637;53.352;-6.356;2023-01-19T02:46:02;1.10;99.90
35531;DHT22;21637;53.352;-6.356;2023-01-19T02:48:28;1.10;99.90
35531;DHT22;21637;53.352;-6.356;2023-01-19T02:50:57;1.10;99.90
35531;DHT22;21637;53.352;-6.356;2023-01-19T03:03:29;1.10;99.90
35531;DHT22;21637;53.352;-6.356;2023-01-19T03:11:01;1.10;99.90
35531;DHT22;21637;53.352;-6.356;2023-01-19T03:16:13;1.10;99.90
35531;DHT22;21637;53.352;-6.356;2023-01-19T03:18:41;1.10;99.90
35531;DHT22;21637;53.352;-6.356;2023-01-19T03:21:08;1.10;99.90
35531;DHT22;21637;53.352;-6.356;2023-01-19T03:23:34;1.00;99.90
35531;DHT22;21637;53.352;-6.356;2023-01-19T03:26:00;1.00;99.90
35531;DHT22;21637;53.352;-6.356;2023-01-19T03:28:27;1.00;99.90
35531;DHT22;21637;53.352;-6.356;2023-01-19T03:30:58;1.00;99.90
35531;DHT22;21637;53.352;-6.356;2023-01-19T03:33:28;1.00;99.90
35531;DHT22;21637;53.352;-6.356;2023-01-19T03:35:56;1.00;99.90
35531;DHT22;21637;53.352;-6.356;2023-01-19T03:38:27;1.00;99.90
35531;DHT22;21637;53.352;-6.356;2023-01-19T03:40:57;1.00;99.90
35531;DHT22;21637;53.352;-6.356;2023-01-19T03:43:24;0.90;99.90
35531;DHT22;21637;53.352;-6.356;2023-01-19T03:45:50;0.90;99.90
35531;DHT22;21637;53.352;-6.356;2023-01-19T03:48:17;0.90;99.90
35531;DHT22;21637;53.352;-6.356;2023-01-19T03:50:43;0.90;99.90
35531;DHT22;21637;53.352;-6.356;2023-01-19T03:53:10;0.90;99.90
35531;DHT22;21637;53.352;-6.356;2023-01-19T03:55:37;0.90;99.90
35531;DHT22;21637;53.352;-6.356;2023-01-19T03:58:03;1.00;99.90
35531;DHT22;21637;53.352;-6.356;2023-01-19T04:00:28;0.90;99.90
35531;DHT22;21637;53.352;-6.356;2023-01-19T04:02:54;0.90;99.90
35531;DHT22;21637;53.352;-6.356;2023-01-19T04:05:20;0.90;99.90
35531;DHT22;21637;53.352;-6.356;2023-01-19T04:07:47;0.90;99.90
35531;DHT22;21637;53.352;-6.356;2023-01-19T04:10:12;0.80;99.90
35531;DHT22;21637;53.352;-6.356;2023-01-19T04:12:40;0.80;99.90
35531;DHT22;21637;53.352;-6.356;2023-01-19T04:15:06;0.70;99.90
35531;DHT22;21637;53.352;-6.356;2023-01-19T04:17:31;0.70;99.90
35531;DHT22;21637;53.352;-6.356;2023-01-19T04:19:57;0.70;99.90
35531;DHT22;21637;53.352;-6.356;2023-01-19T04:22:22;0.70;99.90
35531;DHT22;21637;53.352;-6.356;2023-01-19T04:24:48;0.70;99.90
35531;DHT22;21637;53.352;-6.356;2023-01-19T04:27:13;0.60;99.90
35531;DHT22;21637;53.352;-6.356;2023-01-19T04:29:40;0.60;99.90
35531;DHT22;21637;53.352;-6.356;2023-01-19T04:32:06;0.60;99.90
35531;DHT22;21637;53.352;-6.356;2023-01-19T04:34:32;0.60;99.90
35531;DHT22;21637;53.352;-6.356;2023-01-19T04:36:57;0.60;99.90
35531;DHT22;21637;53.352;-6.356;2023-01-19T04:39:23;0.60;99.90
35531;DHT22;21637;53.352;-6.356;2023-01-19T04:41:48;0.60;99.90
35531;DHT22;21637;53.352;-6.356;2023-01-19T04:44:16;0.50;99.90
35531;DHT22;21637;53.352;-6.356;2023-01-19T04:46:41;0.50;99.90
35531;DHT22;21637;53.352;-6.356;2023-01-19T04:49:07;0.50;99.90
35531;DHT22;21637;53.352;-6.356;2023-01-19T04:51:33;0.50;99.90
35531;DHT22;21637;53.352;-6.356;2023-01-19T04:53:58;0.50;99.90
35531;DHT22;21637;53.352;-6.356;2023-01-19T04:56:24;0.50;99.90
35531;DHT22;21637;53.352;-6.356;2023-01-19T04:58:49;0.40;99.90
35531;DHT22;21637;53.352;-6.356;2023-01-19T05:01:15;0.40;99.90
35531;DHT22;21637;53.352;-6.356;2023-01-19T05:03:41;0.30;99.90
35531;DHT22;21637;53.352;-6.356;2023-01-19T05:06:06;0.30;99.90
35531;DHT22;21637;53.352;-6.356;2023-01-19T05:08:32;0.30;99.90
35531;DHT22;21637;53.352;-6.356;2023-01-19T05:10:57;0.20;99.90
35531;DHT22;21637;53.352;-6.356;2023-01-19T05:13:23;0.20;99.90
35531;DHT22;21637;53.352;-6.356;2023-01-19T05:15:49;0.20;99.90
35531;DHT22;21637;53.352;-6.356;2023-01-19T05:18:14;0.10;99.90
35531;DHT22;21637;53.352;-6.356;2023-01-19T05:20:40;0.10;99.90
35531;DHT22;21637;53.352;-6.356;2023-01-19T05:23:06;0.10;99.90
35531;DHT22;21637;53.352;-6.356;2023-01-19T05:25:31;0.10;99.90
35531;DHT22;21637;53.352;-6.356;2023-01-19T05:27:57;0.00;99.90
35531;DHT22;21637;53.352;-6.356;2023-01-19T05:30:22;0.00;99.90
35531;DHT22;21637;53.352;-6.356;2023-01-19T05:32:48;0.00;99.90
35531;DHT22;21637;53.352;-6.356;2023-01-19T05:35:13;-0.10;99.90
35531;DHT22;21637;53.352;-6.356;2023-01-19T05:37:40;-0.10;99.90
35531;DHT22;21637;53.352;-6.356;2023-01-19T05:40:06;-0.10;99.90
35531;DHT22;21637;53.352;-6.356;2023-01-19T05:42:32;-0.20;99.90
35531;DHT22;21637;53.352;-6.356;2023-01-19T05:44:58;-0.20;99.90
35531;DHT22;21637;53.352;-6.356;2023-01-19T05:47:24;-0.20;99.90
35531;DHT22;21637;53.352;-6.356;2023-01-19T05:49:49;-0.30;99.90
35531;DHT22;21637;53.352;-6.356;2023-01-19T05:52:15;-0.30;99.90
35531;DHT22;21637;53.352;-6.356;2023-01-19T05:54:41;-0.30;99.90
35531;DHT22;21637;53.352;-6.356;2023-01-19T05:57:06;-0.40;99.90
35531;DHT22;21637;53.352;-6.356;2023-01-19T05:59:32;-0.40;99.90
35531;DHT22;21637;53.352;-6.356;2023-01-19T06:01:58;-0.40;99.90
35531;DHT22;21637;53.352;-6.356;2023-01-19T06:04:24;-0.40;99.90
35531;DHT22;21637;53.352;-6.356;2023-01-19T06:06:50;-0.40;99.90
35531;DHT22;21637;53.352;-6.356;2023-01-19T06:09:16;-0.40;99.90
35531;DHT22;21637;53.352;-6.356;2023-01-19T06:11:42;-0.40;99.90
35531;DHT22;21637;53.352;-6.356;2023-01-19T06:14:08;-0.40;99.90
35531;DHT22;21637;53.352;-6.356;2023-01-19T06:16:34;-0.40;99.90
35531;DHT22;21637;53.352;-6.356;2023-01-19T06:19:00;-0.40;99.90
35531;DHT22;21637;53.352;-6.356;2023-01-19T06:21:25;-0.50;99.90
35531;DHT22;21637;53.352;-6.356;2023-01-19T06:23:51;-0.50;99.90
35531;DHT22;21637;53.352;-6.356;2023-01-19T06:26:17;-0.50;99.90
35531;DHT22;21637;53.352;-6.356;2023-01-19T06:28:42;-0.40;99.90
35531;DHT22;21637;53.352;-6.356;2023-01-19T06:31:08;-0.40;99.90
35531;DHT22;21637;53.352;-6.356;2023-01-19T06:33:33;-0.40;99.90
35531;DHT22;21637;53.352;-6.356;2023-01-19T06:35:59;-0.40;99.90
35531;DHT22;21637;53.352;-6.356;2023-01-19T06:38:25;-0.40;99.90
35531;DHT22;21637;53.352;-6.356;2023-01-19T06:40:51;-0.40;99.90
35531;DHT22;21637;53.352;-6.356;2023-01-19T06:43:18;-0.30;99.90
35531;DHT22;21637;53.352;-6.356;2023-01-19T06:45:44;-0.30;99.90
35531;DHT22;21637;53.352;-6.356;2023-01-19T06:48:10;-0.30;99.90
35531;DHT22;21637;53.352;-6.356;2023-01-19T06:50:36;-0.30;99.90
35531;DHT22;21637;53.352;-6.356;2023-01-19T06:53:01;-0.20;99.90
35531;DHT22;21637;53.352;-6.356;2023-01-19T06:55:27;-0.20;99.90
35531;DHT22;21637;53.352;-6.356;2023-01-19T06:57:59;-0.20;99.90
35531;DHT22;21637;53.352;-6.356;2023-01-19T07:00:25;-0.10;99.90
35531;DHT22;21637;53.352;-6.356;2023-01-19T07:02:50;-0.10;99.90
35531;DHT22;21637;53.352;-6.356;2023-01-19T07:05:16;-0.10;99.90
35531;DHT22;21637;53.352;-6.356;2023-01-19T07:07:42;-0.10;99.90
35531;DHT22;21637;53.352;-6.356;2023-01-19T07:10:09;-0.10;99.90
35531;DHT22;21637;53.352;-6.356;2023-01-19T07:12:39;-0.10;99.90
35531;DHT22;21637;53.352;-6.356;2023-01-19T07:15:05;0.00;99.90
35531;DHT22;21637;53.352;-6.356;2023-01-19T07:17:31;0.00;99.90
35531;DHT22;21637;53.352;-6.356;2023-01-19T07:19:57;-0.10;99.90
35531;DHT22;21637;53.352;-6.356;2023-01-19T07:22:22;0.00;99.90
35531;DHT22;21637;53.352;-6.356;2023-01-19T07:24:48;0.00;99.90
35531;DHT22;21637;53.352;-6.356;2023-01-19T07:27:13;0.00;99.90
35531;DHT22;21637;53.352;-6.356;2023-01-19T07:29:40;0.00;99.90
35531;DHT22;21637;53.352;-6.356;2023-01-19T07:32:06;0.00;99.90
35531;DHT22;21637;53.352;-6.356;2023-01-19T07:34:32;0.10;99.90
35531;DHT22;21637;53.352;-6.356;2023-01-19T07:36:58;0.10;99.90
35531;DHT22;21637;53.352;-6.356;2023-01-19T07:39:24;0.10;99.90
35531;DHT22;21637;53.352;-6.356;2023-01-19T07:41:49;0.10;99.90
35531;DHT22;21637;53.352;-6.356;2023-01-19T07:44:15;0.10;99.90
35531;DHT22;21637;53.352;-6.356;2023-01-19T07:46:41;0.10;99.90
35531;DHT22;21637;53.352;-6.356;2023-01-19T07:49:07;0.10;99.90
35531;DHT22;21637;53.352;-6.356;2023-01-19T07:51:33;0.20;99.90
35531;DHT22;21637;53.352;-6.356;2023-01-19T07:53:58;0.20;99.90
35531;DHT22;21637;53.352;-6.356;2023-01-19T07:56:24;0.20;99.90
35531;DHT22;21637;53.352;-6.356;2023-01-19T07:58:52;0.20;99.90
35531;DHT22;21637;53.352;-6.356;2023-01-19T08:01:17;0.20;99.90
35531;DHT22;21637;53.352;-6.356;2023-01-19T08:03:43;0.20;99.90
35531;DHT22;21637;53.352;-6.356;2023-01-19T08:06:16;0.30;99.90
35531;DHT22;21637;53.352;-6.356;2023-01-19T08:08:43;0.30;99.90
35531;DHT22;21637;53.352;-6.356;2023-01-19T08:11:09;0.30;99.90
35531;DHT22;21637;53.352;-6.356;2023-01-19T08:13:35;0.40;99.90
35531;DHT22;21637;53.352;-6.356;2023-01-19T08:16:00;0.40;99.90
35531;DHT22;21637;53.352;-6.356;2023-01-19T08:18:26;0.40;99.90
35531;DHT22;21637;53.352;-6.356;2023-01-19T08:20:51;0.40;99.90
35531;DHT22;21637;53.352;-6.356;2023-01-19T08:23:17;0.40;99.90
35531;DHT22;21637;53.352;-6.356;2023-01-19T08:25:43;0.40;99.90
35531;DHT22;21637;53.352;-6.356;2023-01-19T08:28:10;0.50;99.90
35531;DHT22;21637;53.352;-6.356;2023-01-19T08:30:36;0.50;99.90
35531;DHT22;21637;53.352;-6.356;2023-01-19T08:33:02;0.40;99.90
35531;DHT22;21637;53.352;-6.356;2023-01-19T08:35:32;0.40;99.90
35531;DHT22;21637;53.352;-6.356;2023-01-19T08:37:58;0.40;99.90
35531;DHT22;21637;53.352;-6.356;2023-01-19T08:40:29;0.50;99.90
35531;DHT22;21637;53.352;-6.356;2023-01-19T08:42:58;0.50;99.90
35531;DHT22;21637;53.352;-6.356;2023-01-19T08:45:25;0.50;99.90
35531;DHT22;21637;53.352;-6.356;2023-01-19T08:47:54;0.50;99.90
35531;DHT22;21637;53.352;-6.356;2023-01-19T08:50:20;0.50;99.90
35531;DHT22;21637;53.352;-6.356;2023-01-19T08:52:46;0.50;99.90
35531;DHT22;21637;53.352;-6.356;2023-01-19T08:55:12;0.50;99.90
35531;DHT22;21637;53.352;-6.356;2023-01-19T08:57:37;0.50;99.90
35531;DHT22;21637;53.352;-6.356;2023-01-19T09:00:03;0.60;99.90
35531;DHT22;21637;53.352;-6.356;2023-01-19T09:02:32;0.60;99.90
35531;DHT22;21637;53.352;-6.356;2023-01-19T09:04:57;0.60;99.90
35531;DHT22;21637;53.352;-6.356;2023-01-19T09:07:23;0.60;99.90
35531;DHT22;21637;53.352;-6.356;2023-01-19T09:09:48;0.60;99.90
35531;DHT22;21637;53.352;-6.356;2023-01-19T09:12:14;0.70;99.90
35531;DHT22;21637;53.352;-6.356;2023-01-19T09:14:40;0.80;99.90
35531;DHT22;21637;53.352;-6.356;2023-01-19T09:17:06;0.80;99.90
35531;DHT22;21637;53.352;-6.356;2023-01-19T09:19:31;0.80;99.90
35531;DHT22;21637;53.352;-6.356;2023-01-19T09:21:57;0.90;99.90
35531;DHT22;21637;53.352;-6.356;2023-01-19T09:24:24;0.90;99.90
35531;DHT22;21637;53.352;-6.356;2023-01-19T09:26:49;1.00;99.90
35531;DHT22;21637;53.352;-6.356;2023-01-19T09:29:15;1.00;99.90
35531;DHT22;21637;53.352;-6.356;2023-01-19T09:31:40;1.10;99.90
35531;DHT22;21637;53.352;-6.356;2023-01-19T09:34:08;1.10;99.90
35531;DHT22;21637;53.352;-6.356;2023-01-19T09:36:35;1.10;99.90
35531;DHT22;21637;53.352;-6.356;2023-01-19T09:39:02;1.20;99.90
35531;DHT22;21637;53.352;-6.356;2023-01-19T09:41:27;1.20;99.90
35531;DHT22;21637;53.352;-6.356;2023-01-19T09:43:55;1.20;99.90
35531;DHT22;21637;53.352;-6.356;2023-01-19T09:46:42;1.20;99.90
35531;DHT22;21637;53.352;-6.356;2023-01-19T09:49:11;1.20;99.90
35531;DHT22;21637;53.352;-6.356;2023-01-19T09:51:38;1.20;99.90
35531;DHT22;21637;53.352;-6.356;2023-01-19T09:56:33;1.10;99.90
35531;DHT22;21637;53.352;-6.356;2023-01-19T09:58:59;1.10;99.90
35531;DHT22;21637;53.352;-6.356;2023-01-19T10:06:38;1.30;99.90
35531;DHT22;21637;53.352;-6.356;2023-01-19T10:09:09;1.30;99.90
35531;DHT22;21637;53.352;-6.356;2023-01-19T10:11:38;1.30;99.90
35531;DHT22;21637;53.352;-6.356;2023-01-19T10:14:10;1.40;99.90
35531;DHT22;21637;53.352;-6.356;2023-01-19T10:19:37;1.50;99.90
35531;DHT22;21637;53.352;-6.356;2023-01-19T10:21:56;1.60;99.90
35531;DHT22;21637;53.352;-6.356;2023-01-19T10:24:31;1.70;99.90
35531;DHT22;21637;53.352;-6.356;2023-01-19T10:27:00;1.70;99.90
35531;DHT22;21637;53.352;-6.356;2023-01-19T10:32:00;1.80;99.90
35531;DHT22;21637;53.352;-6.356;2023-01-19T10:34:28;1.80;99.90
35531;DHT22;21637;53.352;-6.356;2023-01-19T10:36:56;1.80;99.90
35531;DHT22;21637;53.352;-6.356;2023-01-19T10:39:23;1.90;99.90
35531;DHT22;21637;53.352;-6.356;2023-01-19T10:41:49;1.90;99.90
35531;DHT22;21637;53.352;-6.356;2023-01-19T10:44:28;2.00;99.90
35531;DHT22;21637;53.352;-6.356;2023-01-19T10:46:58;2.00;99.90
35531;DHT22;21637;53.352;-6.356;2023-01-19T10:49:28;2.10;99.90
35531;DHT22;21637;53.352;-6.356;2023-01-19T10:51:56;2.20;99.90
35531;DHT22;21637;53.352;-6.356;2023-01-19T10:54:22;2.20;99.90
35531;DHT22;21637;53.352;-6.356;2023-01-19T10:56:56;2.30;99.90
35531;DHT22;21637;53.352;-6.356;2023-01-19T10:59:45;2.30;99.90
35531;DHT22;21637;53.352;-6.356;2023-01-19T11:04:36;2.50;99.90
35531;DHT22;21637;53.352;-6.356;2023-01-19T11:07:11;2.60;99.90
35531;DHT22;21637;53.352;-6.356;2023-01-19T11:09:37;2.60;99.90
35531;DHT22;21637;53.352;-6.356;2023-01-19T11:12:03;2.70;99.90
35531;DHT22;21637;53.352;-6.356;2023-01-19T11:14:28;2.80;99.90
35531;DHT22;21637;53.352;-6.356;2023-01-19T11:16:55;2.80;99.90
35531;DHT22;21637;53.352;-6.356;2023-01-19T11:19:25;2.80;99.90
35531;DHT22;21637;53.352;-6.356;2023-01-19T11:21:51;2.80;99.90
35531;DHT22;21637;53.352;-6.356;2023-01-19T11:24:17;2.80;99.90
35531;DHT22;21637;53.352;-6.356;2023-01-19T11:26:44;2.80;99.90
35531;DHT22;21637;53.352;-6.356;2023-01-19T11:29:24;2.70;99.90
35531;DHT22;21637;53.352;-6.356;2023-01-19T11:31:50;2.70;99.90
35531;DHT22;21637;53.352;-6.356;2023-01-19T11:36:55;2.70;99.90
35531;DHT22;21637;53.352;-6.356;2023-01-19T11:39:22;2.70;99.90
35531;DHT22;21637;53.352;-6.356;2023-01-19T11:41:50;2.70;99.90
35531;DHT22;21637;53.352;-6.356;2023-01-19T11:44:34;2.80;99.90
35531;DHT22;21637;53.352;-6.356;2023-01-19T11:47:04;2.80;99.90
35531;DHT22;21637;53.352;-6.356;2023-01-19T11:49:48;2.80;99.90
35531;DHT22;21637;53.352;-6.356;2023-01-19T11:52:30;2.90;99.90
35531;DHT22;21637;53.352;-6.356;2023-01-19T11:55:00;2.90;99.90
35531;DHT22;21637;53.352;-6.356;2023-01-19T11:57:27;2.90;99.90
35531;DHT22;21637;53.352;-6.356;2023-01-19T11:59:53;2.90;99.90
35531;DHT22;21637;53.352;-6.356;2023-01-19T12:02:26;3.00;99.90
35531;DHT22;21637;53.352;-6.356;2023-01-19T12:04:54;3.00;99.90
35531;DHT22;21637;53.352;-6.356;2023-01-19T12:07:22;3.00;99.90
35531;DHT22;21637;53.352;-6.356;2023-01-19T12:09:51;3.00;99.90
35531;DHT22;21637;53.352;-6.356;2023-01-19T12:14:50;3.10;99.90
35531;DHT22;21637;53.352;-6.356;2023-01-19T12:17:24;3.20;99.90
35531;DHT22;21637;53.352;-6.356;2023-01-19T12:19:52;3.20;99.90
35531;DHT22;21637;53.352;-6.356;2023-01-19T12:22:19;3.20;99.90
35531;DHT22;21637;53.352;-6.356;2023-01-19T12:24:46;3.30;99.90
35531;DHT22;21637;53.352;-6.356;2023-01-19T12:27:15;3.30;99.90
35531;DHT22;21637;53.352;-6.356;2023-01-19T12:29:42;3.30;99.90
35531;DHT22;21637;53.352;-6.356;2023-01-19T12:34:43;3.40;99.90
35531;DHT22;21637;53.352;-6.356;2023-01-19T12:39:58;3.40;99.90
35531;DHT22;21637;53.352;-6.356;2023-01-19T12:42:25;3.50;99.90
35531;DHT22;21637;53.352;-6.356;2023-01-19T12:45:02;3.50;99.90
35531;DHT22;21637;53.352;-6.356;2023-01-19T12:47:28;3.50;99.90
35531;DHT22;21637;53.352;-6.356;2023-01-19T12:49:55;3.50;99.90
35531;DHT22;21637;53.352;-6.356;2023-01-19T12:57:25;3.50;99.90
35531;DHT22;21637;53.352;-6.356;2023-01-19T12:59:55;3.50;99.90
35531;DHT22;21637;53.352;-6.356;2023-01-19T13:02:29;3.50;99.90
35531;DHT22;21637;53.352;-6.356;2023-01-19T13:13:11;3.60;99.90
35531;DHT22;21637;53.352;-6.356;2023-01-19T13:15:40;3.60;99.90
35531;DHT22;21637;53.352;-6.356;2023-01-19T13:18:06;3.60;99.90
35531;DHT22;21637;53.352;-6.356;2023-01-19T13:20:42;3.70;99.90
35531;DHT22;21637;53.352;-6.356;2023-01-19T13:25:40;3.80;99.90
35531;DHT22;21637;53.352;-6.356;2023-01-19T13:28:08;3.80;99.90
35531;DHT22;21637;53.352;-6.356;2023-01-19T13:30:34;3.90;99.90
35531;DHT22;21637;53.352;-6.356;2023-01-19T13:33:05;3.90;99.90
35531;DHT22;21637;53.352;-6.356;2023-01-19T13:35:31;3.90;99.90
35531;DHT22;21637;53.352;-6.356;2023-01-19T13:37:56;3.80;99.90
35531;DHT22;21637;53.352;-6.356;2023-01-19T13:40:23;4.00;99.90
35531;DHT22;21637;53.352;-6.356;2023-01-19T13:42:50;4.00;99.90
35531;DHT22;21637;53.352;-6.356;2023-01-19T13:45:33;4.00;99.90
35531;DHT22;21637;53.352;-6.356;2023-01-19T13:48:03;4.00;99.90
35531;DHT22;21637;53.352;-6.356;2023-01-19T13:50:30;4.00;99.90
35531;DHT22;21637;53.352;-6.356;2023-01-19T13:52:57;4.00;99.90
35531;DHT22;21637;53.352;-6.356;2023-01-19T13:55:23;4.00;99.90
35531;DHT22;21637;53.352;-6.356;2023-01-19T13:57:49;4.00;99.90
35531;DHT22;21637;53.352;-6.356;2023-01-19T14:00:17;4.10;99.90
35531;DHT22;21637;53.352;-6.356;2023-01-19T14:02:56;4.10;99.90
35531;DHT22;21637;53.352;-6.356;2023-01-19T14:05:43;4.10;99.90
35531;DHT22;21637;53.352;-6.356;2023-01-19T14:10:41;4.10;99.90
35531;DHT22;21637;53.352;-6.356;2023-01-19T14:15:42;4.10;99.90
35531;DHT22;21637;53.352;-6.356;2023-01-19T14:20:37;4.10;99.90
35531;DHT22;21637;53.352;-6.356;2023-01-19T14:23:03;4.10;99.90
35531;DHT22;21637;53.352;-6.356;2023-01-19T14:25:32;4.10;99.90
35531;DHT22;21637;53.352;-6.356;2023-01-19T14:30:55;4.10;99.90
35531;DHT22;21637;53.352;-6.356;2023-01-19T14:33:34;4.10;99.90
35531;DHT22;21637;53.352;-6.356;2023-01-19T14:38:55;4.00;99.90
35531;DHT22;21637;53.352;-6.356;2023-01-19T14:43:50;3.90;99.90
35531;DHT22;21637;53.352;-6.356;2023-01-19T14:46:17;3.90;99.90
35531;DHT22;21637;53.352;-6.356;2023-01-19T14:48:49;3.90;99.90
35531;DHT22;21637;53.352;-6.356;2023-01-19T14:51:16;3.90;99.90
35531;DHT22;21637;53.352;-6.356;2023-01-19T14:53:45;3.90;99.90
35531;DHT22;21637;53.352;-6.356;2023-01-19T14:56:12;3.90;99.90
35531;DHT22;21637;53.352;-6.356;2023-01-19T14:58:47;4.00;99.90
35531;DHT22;21637;53.352;-6.356;2023-01-19T15:01:13;4.10;99.90
35531;DHT22;21637;53.352;-6.356;2023-01-19T15:03:38;4.10;99.90
35531;DHT22;21637;53.352;-6.356;2023-01-19T15:06:04;4.00;99.90
35531;DHT22;21637;53.352;-6.356;2023-01-19T15:08:31;4.00;99.90
35531;DHT22;21637;53.352;-6.356;2023-01-19T15:10:58;4.00;99.90
35531;DHT22;21637;53.352;-6.356;2023-01-19T15:13:27;4.00;99.90
35531;DHT22;21637;53.352;-6.356;2023-01-19T15:15:53;4.00;99.90
35531;DHT22;21637;53.352;-6.356;2023-01-19T15:18:20;4.00;99.90
35531;DHT22;21637;53.352;-6.356;2023-01-19T15:20:46;3.90;99.90
35531;DHT22;21637;53.352;-6.356;2023-01-19T15:23:12;4.00;99.90
35531;DHT22;21637;53.352;-6.356;2023-01-19T15:25:38;3.90;99.90
35531;DHT22;21637;53.352;-6.356;2023-01-19T15:28:13;3.90;99.90
35531;DHT22;21637;53.352;-6.356;2023-01-19T15:30:39;3.90;99.90
35531;DHT22;21637;53.352;-6.356;2023-01-19T15:33:05;3.90;99.90
35531;DHT22;21637;53.352;-6.356;2023-01-19T15:35:30;3.90;99.90
35531;DHT22;21637;53.352;-6.356;2023-01-19T15:37:56;3.80;99.90
35531;DHT22;21637;53.352;-6.356;2023-01-19T15:40:22;3.80;99.90
35531;DHT22;21637;53.352;-6.356;2023-01-19T15:42:48;3.80;99.90
35531;DHT22;21637;53.352;-6.356;2023-01-19T15:47:58;3.80;99.90
35531;DHT22;21637;53.352;-6.356;2023-01-19T15:50:24;3.80;99.90
35531;DHT22;21637;53.352;-6.356;2023-01-19T15:52:50;3.70;99.90
35531;DHT22;21637;53.352;-6.356;2023-01-19T15:55:16;3.70;99.90
35531;DHT22;21637;53.352;-6.356;2023-01-19T15:57:57;3.70;99.90
35531;DHT22;21637;53.352;-6.356;2023-01-19T16:00:26;3.70;99.90
35531;DHT22;21637;53.352;-6.356;2023-01-19T16:02:52;3.60;99.90
35531;DHT22;21637;53.352;-6.356;2023-01-19T16:05:18;3.60;99.90
35531;DHT22;21637;53.352;-6.356;2023-01-19T16:07:43;3.60;99.90
35531;DHT22;21637;53.352;-6.356;2023-01-19T16:10:09;3.60;99.90
35531;DHT22;21637;53.352;-6.356;2023-01-19T16:12:35;3.60;99.90
35531;DHT22;21637;53.352;-6.356;2023-01-19T16:15:01;3.60;99.90
35531;DHT22;21637;53.352;-6.356;2023-01-19T16:17:26;3.60;99.90
35531;DHT22;21637;53.352;-6.356;2023-01-19T16:19:52;3.60;99.90
35531;DHT22;21637;53.352;-6.356;2023-01-19T16:22:17;3.40;99.90
35531;DHT22;21637;53.352;-6.356;2023-01-19T16:24:43;3.40;99.90
35531;DHT22;21637;53.352;-6.356;2023-01-19T16:27:08;3.30;99.90
35531;DHT22;21637;53.352;-6.356;2023-01-19T16:29:34;3.20;99.90
35531;DHT22;21637;53.352;-6.356;2023-01-19T16:31:59;3.20;99.90
35531;DHT22;21637;53.352;-6.356;2023-01-19T16:34:25;3.10;99.90
35531;DHT22;21637;53.352;-6.356;2023-01-19T16:36:51;3.00;99.90
35531;DHT22;21637;53.352;-6.356;2023-01-19T16:39:16;2.90;99.90
35531;DHT22;21637;53.352;-6.356;2023-01-19T16:41:42;2.80;99.90
35531;DHT22;21637;53.352;-6.356;2023-01-19T16:44:09;2.80;99.90
35531;DHT22;21637;53.352;-6.356;2023-01-19T16:46:36;2.80;99.90
35531;DHT22;21637;53.352;-6.356;2023-01-19T16:49:04;2.80;99.90
35531;DHT22;21637;53.352;-6.356;2023-01-19T16:51:30;2.70;99.90
35531;DHT22;21637;53.352;-6.356;2023-01-19T16:53:55;2.70;99.90